This is the latest recevied weather packets stored in our database for station/object KN6RO-14. If no packets are shown the sender has not sent any weather packets the latest 10 day(s).
| Time | Temp. | Humidity | Pressure | Rain* | Wind** | Luminosity | Snow |
|---|---|---|---|---|---|---|---|
| 1777683258 | 14.44° C | 58% | 1012.2 hPa | 0 mm | - | - | - |
| 1777681458 | 14.44° C | 58% | 1012.1 hPa | 0 mm | - | - | - |
| 1777679658 | 14.44° C | 64% | 1011.9 hPa | 0 mm | - | - | - |
| 1777677858 | 15° C | 66% | 1012.1 hPa | 0 mm | - | - | - |
| 1777676058 | 15.56° C | 67% | 1011.6 hPa | 0 mm | - | - | - |
| 1777674259 | 15.56° C | 67% | 1011.2 hPa | 0 mm | - | - | - |
| 1777672458 | 15.56° C | 65% | 1011.7 hPa | 0 mm | - | - | - |
| 1777670658 | 16.67° C | 63% | 1012 hPa | 0 mm | - | - | - |
| 1777668858 | 16.67° C | 67% | 1012.7 hPa | 0 mm | - | - | - |
| 1777667169 | 13.33° C | 59% | 1013.8 hPa | 0 mm | - | - | - |
| 1777667169 | 12.78° C | 59% | 1013.8 hPa | 0 mm | - | - | - |
| 1777667058 | 16.67° C | 61% | 1012.9 hPa | 0 mm | - | - | - |
| 1777665258 | 16.67° C | 61% | 1012.8 hPa | 0 mm | - | - | - |
| 1777663458 | 16.67° C | 59% | 1013 hPa | 0 mm | - | - | - |
| 1777661659 | 17.22° C | 59% | 1013.3 hPa | 0 mm | - | - | - |
| 1777659859 | 16.11° C | 59% | 1013.7 hPa | 0 mm | - | - | - |
| 1777658059 | 16.11° C | 59% | 1013.7 hPa | 0 mm | - | - | - |
| 1777656259 | 16.67° C | 55% | 1013.9 hPa | 0 mm | - | - | - |
| 1777654459 | 15.56° C | 60% | 1014.1 hPa | 0 mm | - | - | - |
| 1777652659 | 15° C | 56% | 1014.3 hPa | 0 mm | - | - | - |
| 1777650859 | 15° C | 58% | 1014.2 hPa | 0 mm | - | - | - |
| 1777649122 | 13.89° C | 59% | 1014.3 hPa | 0 mm | - | - | - |
| 1777649059 | 13.89° C | 59% | 1014.3 hPa | 0 mm | - | - | - |
| 1777647259 | 14.44° C | 58% | 1014.4 hPa | 0 mm | - | - | - |
| 1777645459 | 13.89° C | 59% | 1014.3 hPa | 0 mm | - | - | - |
* Rain latest hour (hover to see other rain measurements)
** Current wind speed in m/s (hover to see current wind gust speed)